Time;durP1;ratioP1;P1;durP2;ratioP2;P2;SDS_P1;SDS_P2;PMS_P1;PMS_P2;Temp;Humidity;BMP_temperature;BMP_pressure;BME280_temperature;BME280_humidity;BME280_pressure;Samples;Min_cycle;Max_cycle;Signal;HPM_P1;HPM_P2
2022/06/13 00:00:25;;;;;;;4.33;2.30;;;;;;;23.31;60.15;97673.34;5054048;28;20285;-72
2022/06/13 00:02:51;;;;;;;6.30;2.70;;;;;;;23.38;60.21;97669.75;5062565;28;20175;-71
2022/06/13 00:05:17;;;;;;;5.60;2.47;;;;;;;23.35;59.97;97689.75;5057399;28;20428;-72
2022/06/13 00:07:42;;;;;;;7.10;2.40;;;;;;;23.42;60.27;97690.50;5050854;28;20329;-72
2022/06/13 00:10:09;;;;;;;4.47;2.70;;;;;;;23.44;60.37;97709.78;5054190;28;20237;-72
2022/06/13 00:12:35;;;;;;;6.10;2.80;;;;;;;23.34;60.26;97701.47;5054074;28;20237;-71
2022/06/13 00:15:02;;;;;;;5.83;2.50;;;;;;;23.22;59.18;97693.41;5038365;28;20445;-72
2022/06/13 00:17:27;;;;;;;4.20;2.40;;;;;;;23.19;59.33;97703.69;5044517;28;20575;-71
2022/06/13 00:19:53;;;;;;;3.10;2.63;;;;;;;23.02;60.80;97704.25;5037584;28;20441;-72
2022/06/13 00:22:18;;;;;;;4.17;2.90;;;;;;;22.99;61.53;97694.00;5055403;28;20646;-71
2022/06/13 00:24:45;;;;;;;10.83;2.77;;;;;;;22.96;60.96;97699.78;5055232;28;20186;-70
2022/06/13 00:27:11;;;;;;;4.37;3.00;;;;;;;22.91;61.19;97702.31;5054694;28;20194;-71
2022/06/13 00:29:37;;;;;;;4.27;2.60;;;;;;;22.83;61.79;97700.72;5055493;28;20485;-70
2022/06/13 00:32:03;;;;;;;6.20;2.53;;;;;;;22.81;61.83;97687.56;5054814;28;20602;-71
2022/06/13 00:34:29;;;;;;;4.40;2.70;;;;;;;22.88;61.74;97687.50;5053370;28;20974;-71
2022/06/13 00:36:54;;;;;;;7.63;2.60;;;;;;;22.92;62.06;97678.03;5055181;28;20186;-72
2022/06/13 00:39:20;;;;;;;3.37;2.70;;;;;;;22.88;61.43;97686.72;5052466;28;20183;-72
2022/06/13 00:41:46;;;;;;;4.93;3.23;;;;;;;22.93;60.89;97684.22;5054965;28;20215;-72
2022/06/13 00:44:19;;;;;;;5.63;2.50;;;;;;;22.94;60.50;97681.31;5053587;28;20207;-71
2022/06/13 00:46:45;;;;;;;5.63;3.20;;;;;;;22.85;60.12;97672.75;5059274;28;20424;-71
2022/06/13 00:49:14;;;;;;;4.30;2.60;;;;;;;22.84;60.88;97681.00;5067109;28;20993;-72
2022/06/13 00:51:50;;;;;;;4.53;2.83;;;;;;;22.82;60.93;97657.16;5054027;28;20210;-70
2022/06/13 00:54:18;;;;;;;5.17;3.00;;;;;;;22.70;61.24;97653.56;5036005;28;20437;-70
2022/06/13 00:56:44;;;;;;;8.03;2.60;;;;;;;22.74;61.88;97649.44;5036207;28;20501;-71
2022/06/13 00:59:12;;;;;;;4.37;2.93;;;;;;;22.73;61.59;97650.47;5052455;28;20466;-70
2022/06/13 01:01:38;;;;;;;8.07;3.07;;;;;;;22.59;62.10;97635.59;5052469;28;20619;-70
2022/06/13 01:04:05;;;;;;;5.60;3.10;;;;;;;22.55;61.89;97648.56;5060626;28;20434;-70
2022/06/13 01:06:35;;;;;;;6.07;2.80;;;;;;;22.61;62.23;97646.88;5061493;28;20186;-70
2022/06/13 01:09:03;;;;;;;3.50;2.70;;;;;;;22.69;62.13;97658.09;5036765;28;20504;-70
2022/06/13 01:11:28;;;;;;;3.63;2.57;;;;;;;22.75;62.43;97645.72;5036679;28;20532;-71
2022/06/13 01:14:11;;;;;;;4.67;2.70;;;;;;;22.66;61.77;97636.38;5056238;28;20459;-70
2022/06/13 01:17:04;;;;;;;3.33;3.03;;;;;;;22.70;61.35;97638.38;5062576;28;20195;-71
2022/06/13 01:19:44;;;;;;;2.63;2.43;;;;;;;22.72;60.99;97659.50;5050089;28;20433;-70
2022/06/13 01:22:21;;;;;;;4.17;3.20;;;;;;;22.74;61.72;97657.44;5056226;28;20425;-70
2022/06/13 01:25:10;;;;;;;4.87;2.67;;;;;;;22.77;60.99;97665.03;5057323;28;21018;-70
2022/06/13 01:27:59;;;;;;;4.43;2.90;;;;;;;22.61;60.79;97662.91;5049668;28;20542;-70
2022/06/13 01:30:33;;;;;;;5.10;2.97;;;;;;;22.54;60.85;97649.59;5057960;28;20449;-70
2022/06/13 01:33:14;;;;;;;6.77;2.80;;;;;;;22.56;61.26;97650.22;5057687;28;20427;-69
2022/06/13 01:36:04;;;;;;;3.40;2.53;;;;;;;22.64;61.28;97662.47;5052495;28;20441;-71
2022/06/13 01:38:57;;;;;;;4.63;2.87;;;;;;;22.65;61.53;97645.41;5057491;28;20449;-71
2022/06/13 01:41:34;;;;;;;7.83;3.00;;;;;;;22.63;61.86;97636.81;5058432;28;20563;-70
2022/06/13 01:44:29;;;;;;;2.70;2.50;;;;;;;22.53;62.17;97631.94;5039180;28;20468;-70
2022/06/13 01:47:10;;;;;;;4.00;2.93;;;;;;;22.59;62.36;97640.94;5051971;28;20452;-71
2022/06/13 01:49:51;;;;;;;4.77;2.90;;;;;;;22.59;61.92;97625.75;5052208;28;20460;-71
2022/06/13 01:52:35;;;;;;;2.70;2.50;;;;;;;22.58;61.51;97624.09;5065788;28;20427;-72
2022/06/13 01:55:15;;;;;;;4.47;2.80;;;;;;;22.59;61.33;97630.25;5056191;28;20506;-71
2022/06/13 01:58:19;;;;;;;5.27;2.53;;;;;;;22.61;62.06;97638.88;5051011;28;20455;-72
2022/06/13 02:00:58;;;;;;;3.10;2.77;;;;;;;22.59;62.72;97646.28;5040380;28;20446;-73
2022/06/13 02:03:29;;;;;;;8.77;3.00;;;;;;;22.53;63.06;97635.44;5060554;28;20429;-71
2022/06/13 02:06:20;;;;;;;2.63;2.40;;;;;;;22.52;63.12;97636.47;5055387;28;20928;-72
2022/06/13 02:08:54;;;;;;;5.60;3.17;;;;;;;22.49;62.92;97646.78;5050653;28;20508;-71
2022/06/13 02:11:29;;;;;;;3.17;2.50;;;;;;;22.42;62.68;97657.53;5055260;28;20493;-69
2022/06/13 02:14:18;;;;;;;4.83;2.90;;;;;;;22.52;63.34;97665.84;5056139;28;20440;-71
2022/06/13 02:16:58;;;;;;;4.57;2.50;;;;;;;22.54;63.05;97671.81;5061212;28;20429;-71
2022/06/13 02:19:34;;;;;;;6.60;2.80;;;;;;;22.53;63.12;97675.50;5050562;28;20438;-72
2022/06/13 02:22:05;;;;;;;4.37;2.87;;;;;;;22.53;62.98;97672.84;5046678;28;20506;-71
2022/06/13 02:24:34;;;;;;;3.73;2.90;;;;;;;22.47;63.60;97676.38;5051922;28;20430;-72
2022/06/13 02:27:01;;;;;;;4.93;2.87;;;;;;;22.52;63.56;97670.38;5059227;28;20434;-72
2022/06/13 02:29:39;;;;;;;5.20;2.63;;;;;;;22.42;62.96;97665.53;5067671;28;20483;-72
2022/06/13 02:32:09;;;;;;;5.03;2.60;;;;;;;22.44;63.14;97660.78;5059504;28;20472;-72
2022/06/13 02:34:39;;;;;;;6.47;2.67;;;;;;;22.44;62.78;97665.31;5041979;28;20528;-72
2022/06/13 02:37:13;;;;;;;4.70;2.83;;;;;;;22.40;62.39;97660.38;5055568;28;20449;-71
2022/06/13 02:39:53;;;;;;;5.20;2.70;;;;;;;22.36;62.59;97659.19;5059396;28;20959;-72
2022/06/13 02:42:46;;;;;;;8.50;2.90;;;;;;;22.27;61.74;97659.66;5077807;28;20450;-71
2022/06/13 02:45:26;;;;;;;4.10;2.47;;;;;;;22.30;61.30;97656.56;5056780;28;20473;-70
2022/06/13 02:48:01;;;;;;;3.53;2.20;;;;;;;22.30;61.26;97660.03;5053136;28;20465;-70
2022/06/13 02:50:42;;;;;;;5.03;3.17;;;;;;;22.30;61.10;97665.38;5051942;28;20460;-71
2022/06/13 02:53:24;;;;;;;2.40;2.20;;;;;;;22.25;60.73;97658.03;5059462;28;20497;-71
2022/06/13 02:56:04;;;;;;;4.83;2.30;;;;;;;22.24;60.43;97651.03;5057862;28;20456;-71
2022/06/13 02:58:37;;;;;;;5.20;2.50;;;;;;;22.19;59.24;97661.53;5047805;28;20421;-71
2022/06/13 03:01:11;;;;;;;9.83;2.67;;;;;;;22.14;59.70;97656.06;5057131;28;20445;-71
2022/06/13 03:04:21;;;;;;;2.33;2.10;;;;;;;22.13;60.35;97658.91;5048128;28;20429;-71
2022/06/13 03:07:35;;;;;;;5.20;2.37;;;;;;;22.02;60.99;97666.59;5029476;28;20449;-73
2022/06/13 03:10:10;;;;;;;3.90;2.30;;;;;;;21.99;60.80;97660.88;4934018;29;20532;-71
2022/06/13 03:13:01;;;;;;;4.50;2.40;;;;;;;21.99;60.28;97666.19;4939974;29;20444;-72
2022/06/13 03:15:45;;;;;;;4.63;2.10;;;;;;;21.98;60.24;97659.22;5035005;28;20433;-71
2022/06/13 03:18:15;;;;;;;3.00;2.13;;;;;;;21.94;59.23;97662.31;5055679;28;20521;-71
2022/06/13 03:20:47;;;;;;;4.63;2.40;;;;;;;21.85;59.40;97663.59;5057384;28;20449;-71
2022/06/13 03:23:21;;;;;;;4.47;2.50;;;;;;;21.85;59.66;97663.59;5056728;28;20425;-71
2022/06/13 03:25:54;;;;;;;4.13;2.60;;;;;;;21.85;59.94;97658.28;5056846;28;20507;-71
2022/06/13 03:28:24;;;;;;;2.97;2.10;;;;;;;21.75;59.21;97669.41;5055373;28;20472;-71
2022/06/13 03:31:02;;;;;;;3.70;2.30;;;;;;;21.75;59.12;97665.91;5056634;28;20460;-71
2022/06/13 03:33:40;;;;;;;5.50;2.67;;;;;;;21.69;59.57;97666.75;5022572;28;20501;-71
2022/06/13 03:36:09;;;;;;;5.87;2.60;;;;;;;21.66;59.18;97668.00;5055783;28;20447;-71
2022/06/13 03:38:39;;;;;;;5.47;2.50;;;;;;;21.60;59.10;97672.34;5052386;28;20438;-72
2022/06/13 03:41:06;;;;;;;4.73;2.90;;;;;;;21.44;59.14;97667.44;5052575;28;20495;-72
2022/06/13 03:43:40;;;;;;;8.27;2.80;;;;;;;21.35;58.23;97668.72;5056754;28;20417;-72
2022/06/13 03:46:10;;;;;;;6.77;2.97;;;;;;;21.30;58.43;97672.81;5055637;28;20524;-73
2022/06/13 03:48:43;;;;;;;5.93;2.80;;;;;;;21.26;57.73;97670.78;5037924;28;20461;-72
2022/06/13 03:51:18;;;;;;;5.77;2.60;;;;;;;21.29;57.56;97681.03;5053977;28;20468;-71
2022/06/13 03:53:47;;;;;;;12.17;2.90;;;;;;;21.15;57.92;97680.28;5052965;28;20775;-71
2022/06/13 03:56:24;;;;;;;6.23;2.43;;;;;;;21.21;58.40;97684.75;5053520;28;20437;-71
2022/06/13 03:59:21;;;;;;;8.50;3.13;;;;;;;21.26;57.98;97676.97;5036894;28;20448;-71
2022/06/13 04:01:49;;;;;;;8.13;2.80;;;;;;;21.22;57.28;97674.94;5048278;28;20996;-71
2022/06/13 04:04:18;;;;;;;6.40;3.20;;;;;;;21.14;57.14;97670.63;5060435;28;20433;-70
2022/06/13 04:06:44;;;;;;;14.00;2.80;;;;;;;21.18;56.76;97675.34;5054698;28;20433;-70
2022/06/13 04:09:14;;;;;;;11.37;3.07;;;;;;;21.25;57.42;97677.97;5051316;28;20474;-70
2022/06/13 04:11:58;;;;;;;6.37;2.97;;;;;;;21.23;56.53;97669.38;5053900;28;20449;-71
2022/06/13 04:14:55;;;;;;;9.93;2.70;;;;;;;21.13;57.06;97677.81;5052630;28;20905;-70
2022/06/13 04:17:31;;;;;;;5.00;2.77;;;;;;;21.11;56.73;97673.72;5053517;28;20483;-70
2022/06/13 04:20:02;;;;;;;5.97;2.70;;;;;;;21.17;55.99;97668.38;5052481;28;20976;-69
2022/06/13 04:22:49;;;;;;;5.83;2.50;;;;;;;21.28;53.99;97677.56;5045784;28;20803;-71
2022/06/13 04:25:23;;;;;;;8.93;2.50;;;;;;;21.29;54.61;97681.88;5032352;28;20437;-70
2022/06/13 04:28:16;;;;;;;5.00;2.63;;;;;;;21.14;55.36;97683.97;5054070;28;20463;-71
2022/06/13 04:30:43;;;;;;;4.30;3.00;;;;;;;21.11;54.62;97679.84;5046521;28;20446;-72
2022/06/13 04:33:19;;;;;;;12.50;3.70;;;;;;;20.97;55.79;97687.06;5052542;28;20451;-71
2022/06/13 04:35:47;;;;;;;9.60;3.07;;;;;;;21.07;55.22;97680.47;5054826;28;20916;-70
2022/06/13 04:38:15;;;;;;;5.73;2.60;;;;;;;21.04;55.09;97683.59;5056209;28;20425;-70
2022/06/13 04:40:45;;;;;;;4.60;3.10;;;;;;;21.06;55.26;97692.16;5048097;28;20465;-71
2022/06/13 04:43:13;;;;;;;9.20;3.30;;;;;;;21.09;55.47;97697.09;5036254;28;20437;-71
2022/06/13 04:45:45;;;;;;;7.63;2.97;;;;;;;21.02;55.90;97705.91;5055973;28;20433;-70
2022/06/13 04:48:11;;;;;;;3.73;2.90;;;;;;;21.06;55.28;97698.31;5040653;28;20465;-71
2022/06/13 04:50:40;;;;;;;6.13;2.90;;;;;;;21.07;55.05;97705.28;5052749;28;20484;-71
2022/06/13 04:53:12;;;;;;;4.37;2.90;;;;;;;21.08;54.72;97706.09;5066271;28;20218;-72
2022/06/13 04:55:42;;;;;;;7.13;3.10;;;;;;;20.97;54.55;97711.03;5041353;28;20775;-71
2022/06/13 04:58:25;;;;;;;8.77;2.90;;;;;;;20.99;54.37;97708.16;5056615;28;20437;-72
2022/06/13 05:00:56;;;;;;;9.80;2.70;;;;;;;21.07;54.14;97720.44;5056708;28;20447;-71
2022/06/13 05:03:25;;;;;;;7.73;2.50;;;;;;;21.15;53.89;97722.91;5065617;28;20433;-71
2022/06/13 05:05:54;;;;;;;10.27;3.17;;;;;;;21.15;54.39;97730.91;5057166;28;20464;-71
2022/06/13 05:08:24;;;;;;;6.30;2.63;;;;;;;21.15;54.45;97729.03;5050870;28;20513;-72
2022/06/13 05:10:51;;;;;;;6.93;3.10;;;;;;;21.25;53.69;97739.28;5052877;28;20480;-71
2022/06/13 05:13:17;;;;;;;9.90;2.43;;;;;;;21.28;53.20;97736.22;5055731;28;20483;-71
2022/06/13 05:15:45;;;;;;;9.27;3.07;;;;;;;21.37;52.88;97744.78;5055576;28;20944;-71
2022/06/13 05:18:43;;;;;;;8.33;3.10;;;;;;;21.42;52.43;97754.84;5052016;28;20433;-72
2022/06/13 05:21:27;;;;;;;8.30;2.97;;;;;;;21.51;52.71;97755.41;5048433;28;20936;-71
2022/06/13 05:24:14;;;;;;;8.57;3.27;;;;;;;21.53;52.61;97748.88;5056646;28;20432;-71
2022/06/13 05:26:39;;;;;;;12.27;3.23;;;;;;;21.66;51.92;97755.22;5049744;28;20426;-72
2022/06/13 05:29:08;;;;;;;10.10;2.80;;;;;;;21.75;51.88;97759.28;5022411;28;20523;-71
2022/06/13 05:31:34;;;;;;;8.30;3.17;;;;;;;21.90;51.24;97762.50;5041286;28;20690;-71
2022/06/13 05:33:59;;;;;;;5.77;3.00;;;;;;;22.02;51.20;97767.19;5057216;28;20483;-73
2022/06/13 05:36:25;;;;;;;11.37;2.57;;;;;;;22.04;50.92;97770.47;5059432;28;20191;-72
2022/06/13 05:38:54;;;;;;;7.80;3.20;;;;;;;22.18;51.05;97774.66;5057926;28;20186;-71
2022/06/13 05:41:19;;;;;;;7.00;2.50;;;;;;;22.30;50.39;97776.69;5056341;28;20461;-71
2022/06/13 05:43:45;;;;;;;4.63;2.40;;;;;;;22.40;50.20;97782.38;5056459;28;20429;-72
2022/06/13 05:46:16;;;;;;;6.40;2.93;;;;;;;22.50;50.58;97789.94;5055595;28;20187;-72
2022/06/13 05:48:42;;;;;;;6.20;2.93;;;;;;;22.53;48.95;97784.16;5055968;28;20214;-71
2022/06/13 05:51:07;;;;;;;10.40;2.97;;;;;;;22.65;48.89;97784.31;5056754;28;20445;-70
2022/06/13 05:53:33;;;;;;;11.67;2.77;;;;;;;22.70;48.21;97787.13;5057015;28;20190;-72
2022/06/13 05:56:00;;;;;;;9.43;3.13;;;;;;;22.78;48.35;97800.25;5055195;28;20722;-70
2022/06/13 05:58:26;;;;;;;5.80;2.60;;;;;;;22.81;48.96;97799.78;5055546;28;20431;-71
2022/06/13 06:01:01;;;;;;;10.73;3.37;;;;;;;22.90;47.78;97794.19;5053067;28;20484;-71
2022/06/13 06:03:26;;;;;;;7.63;2.80;;;;;;;22.91;46.87;97793.97;5061330;28;20248;-71
2022/06/13 06:05:53;;;;;;;13.33;3.07;;;;;;;22.97;47.08;97797.63;5054548;28;20437;-71
2022/06/13 06:08:24;;;;;;;12.43;2.80;;;;;;;23.05;47.26;97802.72;5038739;28;20203;-70
2022/06/13 06:10:51;;;;;;;7.00;3.10;;;;;;;23.09;45.29;97803.91;5056105;28;20453;-71
2022/06/13 06:13:17;;;;;;;7.73;3.00;;;;;;;23.12;45.33;97803.47;5057057;28;20851;-71
2022/06/13 06:15:44;;;;;;;8.70;2.60;;;;;;;23.14;45.25;97801.41;5038517;28;20497;-70
2022/06/13 06:18:11;;;;;;;5.80;2.47;;;;;;;23.25;45.80;97804.41;5052611;28;20634;-70
2022/06/13 06:20:37;;;;;;;8.17;2.93;;;;;;;23.28;45.49;97810.13;5055647;28;20461;-70
2022/06/13 06:23:03;;;;;;;7.90;2.93;;;;;;;23.36;45.46;97811.72;5054020;28;20444;-72
2022/06/13 06:25:30;;;;;;;6.20;2.90;;;;;;;23.46;45.33;97812.03;5053898;28;20242;-72
2022/06/13 06:27:55;;;;;;;4.70;2.50;;;;;;;23.55;44.22;97815.22;5052500;28;20461;-71
2022/06/13 06:30:21;;;;;;;12.43;2.90;;;;;;;23.59;43.73;97820.94;5054750;28;20500;-70
2022/06/13 06:32:47;;;;;;;9.80;2.63;;;;;;;23.62;43.98;97815.16;5057856;28;20191;-71
2022/06/13 06:35:13;;;;;;;7.07;2.80;;;;;;;23.70;44.03;97817.53;5057572;28;20804;-71
2022/06/13 06:37:40;;;;;;;8.17;2.90;;;;;;;23.84;44.19;97823.59;5052286;28;20193;-70
2022/06/13 06:40:07;;;;;;;8.07;2.50;;;;;;;23.84;43.38;97820.06;5053483;28;20812;-72
2022/06/13 06:42:33;;;;;;;4.50;2.60;;;;;;;23.86;41.70;97826.03;5053026;28;20506;-70
2022/06/13 06:44:59;;;;;;;5.10;2.37;;;;;;;24.02;42.48;97825.47;5055524;28;20430;-71
2022/06/13 06:47:24;;;;;;;4.43;1.97;;;;;;;24.10;42.20;97820.84;5053178;28;20221;-71
2022/06/13 06:49:50;;;;;;;7.23;2.40;;;;;;;24.25;42.18;97823.13;5056007;28;20187;-72
2022/06/13 06:52:15;;;;;;;8.07;2.30;;;;;;;24.35;41.80;97831.44;5055466;28;20198;-70
2022/06/13 07:00:09;;;;;;;9.57;2.47;;;;;;;24.60;40.70;97841.22;5053819;28;20453;-71
2022/06/13 07:02:35;;;;;;;4.67;2.10;;;;;;;24.53;37.59;97841.28;5059111;28;20433;-72
2022/06/13 07:05:04;;;;;;;14.27;2.27;;;;;;;24.57;39.40;97837.13;5052407;28;20437;-70
2022/06/13 07:07:30;;;;;;;9.80;2.70;;;;;;;24.58;38.67;97835.25;5062073;28;20273;-71
2022/06/13 07:09:55;;;;;;;9.57;3.10;;;;;;;24.61;39.39;97832.13;5054883;28;20580;-72
2022/06/13 07:12:20;;;;;;;6.20;2.93;;;;;;;24.66;38.32;97841.13;5054447;28;20676;-71
2022/06/13 07:14:46;;;;;;;8.40;2.53;;;;;;;24.73;38.85;97845.56;5054550;28;20189;-73
2022/06/13 07:17:13;;;;;;;8.03;2.93;;;;;;;24.78;38.98;97848.41;5052134;28;20223;-72
2022/06/13 07:19:39;;;;;;;9.40;2.40;;;;;;;24.89;39.71;97842.25;5052892;28;20274;-71
2022/06/13 07:22:06;;;;;;;11.80;2.50;;;;;;;24.97;38.95;97846.47;5056673;28;20444;-71
2022/06/13 07:24:32;;;;;;;7.70;2.93;;;;;;;25.05;38.78;97845.31;5053706;28;20771;-71
2022/06/13 07:26:58;;;;;;;8.03;2.50;;;;;;;25.19;38.60;97853.97;5061051;28;20427;-71
2022/06/13 07:29:24;;;;;;;6.20;2.20;;;;;;;25.28;37.87;97848.03;5052527;28;20728;-70
2022/06/13 07:31:55;;;;;;;6.50;2.23;;;;;;;25.36;37.43;97846.03;5051494;28;20536;-71
2022/06/13 07:34:23;;;;;;;4.40;2.20;;;;;;;25.46;37.92;97851.66;5049543;28;20199;-71
2022/06/13 07:36:50;;;;;;;7.57;2.37;;;;;;;25.50;37.85;97844.78;5052723;28;20434;-71
2022/06/13 07:39:15;;;;;;;10.67;2.87;;;;;;;25.59;37.21;97851.44;5050742;28;20430;-70
2022/06/13 07:41:41;;;;;;;7.73;2.40;;;;;;;25.64;36.60;97855.28;5051245;28;20445;-72
2022/06/13 07:44:07;;;;;;;6.50;2.40;;;;;;;25.61;36.54;97851.22;5050338;28;20273;-71
2022/06/13 07:46:33;;;;;;;7.07;2.30;;;;;;;25.68;36.17;97859.16;5046711;28;20186;-71
2022/06/13 07:49:00;;;;;;;7.53;2.10;;;;;;;25.77;36.14;97861.22;5051885;28;20983;-70
2022/06/13 07:51:26;;;;;;;4.70;2.50;;;;;;;25.87;36.39;97860.63;5051074;28;20453;-71
2022/06/13 07:53:52;;;;;;;7.20;2.30;;;;;;;25.96;35.37;97866.47;5051712;28;20430;-71
2022/06/13 07:56:20;;;;;;;9.10;2.20;;;;;;;25.99;34.54;97859.78;5052524;28;20460;-70
2022/06/13 07:58:48;;;;;;;7.20;2.70;;;;;;;26.03;34.99;97866.34;5049658;28;20191;-69
2022/06/13 08:01:13;;;;;;;9.00;2.57;;;;;;;26.07;34.76;97862.13;5050872;28;20491;-70
2022/06/13 08:03:39;;;;;;;5.30;2.03;;;;;;;26.17;35.31;97859.69;5057534;28;20465;-70
2022/06/13 08:06:05;;;;;;;7.77;2.27;;;;;;;26.15;34.70;97864.47;5050869;28;20183;-70
2022/06/13 08:08:34;;;;;;;6.43;1.97;;;;;;;26.24;35.37;97872.16;5050963;28;20241;-71
2022/06/13 08:11:02;;;;;;;6.90;2.50;;;;;;;26.18;34.95;97866.69;5048005;28;20500;-70
2022/06/13 08:13:28;;;;;;;5.50;2.27;;;;;;;26.29;35.20;97862.31;5042288;28;20433;-71
2022/06/13 08:15:54;;;;;;;9.40;2.20;;;;;;;26.40;34.93;97865.22;5043471;28;20438;-72
2022/06/13 08:18:19;;;;;;;6.13;2.10;;;;;;;26.44;34.51;97869.88;5050558;28;20179;-70
2022/06/13 08:20:45;;;;;;;6.33;2.70;;;;;;;26.42;34.31;97874.69;5054334;28;20348;-71
2022/06/13 08:23:13;;;;;;;8.20;2.80;;;;;;;26.47;33.81;97877.44;5057389;28;20187;-72
2022/06/13 08:25:39;;;;;;;4.90;2.40;;;;;;;26.52;33.88;97879.44;5054296;28;20572;-71
2022/06/13 08:28:06;;;;;;;8.87;2.27;;;;;;;26.60;33.72;97879.03;5053128;28;20469;-71
2022/06/13 08:30:54;;;;;;;10.20;2.50;;;;;;;26.70;33.78;97877.59;5062807;28;20465;-71
2022/06/13 08:33:21;;;;;;;9.90;2.10;;;;;;;26.87;33.61;97878.50;5053713;28;20433;-71
2022/06/13 08:35:47;;;;;;;5.13;2.47;;;;;;;26.98;33.12;97882.16;5059947;28;20444;-70
2022/06/13 08:38:13;;;;;;;6.37;2.20;;;;;;;27.04;33.44;97881.19;5054506;28;20885;-70
2022/06/13 08:40:44;;;;;;;8.23;2.43;;;;;;;27.15;33.27;97879.50;5049634;28;20207;-71
2022/06/13 08:43:24;;;;;;;9.43;2.50;;;;;;;27.28;33.69;97883.72;5048801;28;20183;-70
2022/06/13 08:46:01;;;;;;;6.97;2.23;;;;;;;27.33;33.25;97881.13;5053523;28;20928;-70
2022/06/13 08:48:36;;;;;;;5.57;1.90;;;;;;;27.40;33.72;97883.66;5044669;28;20465;-71
2022/06/13 08:51:03;;;;;;;6.87;2.50;;;;;;;27.55;32.88;97891.97;5066494;28;20527;-71
2022/06/13 08:53:34;;;;;;;4.70;2.10;;;;;;;27.54;32.52;97887.66;5053643;28;20432;-70
2022/06/13 08:56:06;;;;;;;5.30;2.33;;;;;;;27.61;32.67;97897.44;5053886;28;20528;-71
2022/06/13 08:58:34;;;;;;;8.63;2.40;;;;;;;27.70;32.69;97891.41;5050103;28;20432;-71
2022/06/13 09:01:04;;;;;;;7.63;2.77;;;;;;;27.35;32.21;97887.06;5074715;28;20452;-71
2022/06/13 09:03:51;;;;;;;6.30;2.50;;;;;;;27.19;33.08;97891.38;5052794;28;20525;-71
2022/06/13 09:06:38;;;;;;;7.67;2.60;;;;;;;27.15;32.66;97901.03;5052855;28;20801;-72
2022/06/13 09:09:03;;;;;;;5.80;2.20;;;;;;;27.21;33.25;97902.72;5054015;28;20464;-71
2022/06/13 09:11:36;;;;;;;4.20;2.13;;;;;;;27.37;33.26;97903.78;5054674;28;20452;-71
2022/06/13 09:14:27;;;;;;;7.83;2.57;;;;;;;27.51;33.14;97907.00;5053689;28;20187;-71
2022/06/13 09:17:18;;;;;;;6.37;2.73;;;;;;;27.55;33.26;97913.50;5046827;28;20441;-71
2022/06/13 09:19:54;;;;;;;8.13;2.70;;;;;;;27.60;33.08;97912.78;5034844;28;20426;-71
2022/06/13 09:22:29;;;;;;;11.90;2.77;;;;;;;27.33;34.10;97908.03;5072433;28;20428;-70
2022/06/13 09:25:13;;;;;;;4.43;2.27;;;;;;;27.25;33.71;97917.34;5058032;28;20495;-71
2022/06/13 09:27:45;;;;;;;8.00;2.60;;;;;;;27.38;32.42;97916.19;5047761;28;20476;-70
2022/06/13 09:30:17;;;;;;;6.40;2.47;;;;;;;27.40;32.44;97914.06;5061405;28;20460;-70
2022/06/13 09:32:44;;;;;;;7.47;2.67;;;;;;;27.59;31.90;97919.25;5053121;28;20551;-70
2022/06/13 09:35:15;;;;;;;4.53;2.10;;;;;;;27.79;31.07;97915.22;5055961;28;20527;-70
2022/06/13 09:37:52;;;;;;;9.50;2.60;;;;;;;27.81;31.09;97916.59;5053328;28;20481;-71
2022/06/13 09:40:24;;;;;;;5.53;2.37;;;;;;;27.93;32.20;97913.81;5053989;28;20448;-69
2022/06/13 09:43:16;;;;;;;6.13;2.30;;;;;;;28.05;29.40;97913.69;5037247;28;20425;-71
2022/06/13 09:46:11;;;;;;;5.23;2.27;;;;;;;28.24;29.80;97906.16;5043956;28;20437;-71
2022/06/13 09:48:54;;;;;;;6.50;2.20;;;;;;;28.30;29.71;97921.31;5042082;28;20466;-70
2022/06/13 09:51:32;;;;;;;7.77;2.20;;;;;;;28.50;30.32;97904.59;5053497;28;20992;-70
2022/06/13 09:54:07;;;;;;;6.43;2.50;;;;;;;28.51;29.15;97917.00;5053932;28;20429;-71
2022/06/13 09:56:42;;;;;;;6.47;2.07;;;;;;;28.28;27.62;97912.66;5044796;28;20413;-71
2022/06/13 09:59:51;;;;;;;5.17;2.00;;;;;;;28.53;26.73;97908.66;5052107;28;20421;-71
2022/06/13 10:02:35;;;;;;;6.23;1.90;;;;;;;28.66;27.14;97910.97;5032213;28;20437;-70
2022/06/13 10:05:33;;;;;;;5.17;2.10;;;;;;;28.81;28.04;97904.94;5054399;28;20428;-71
2022/06/13 10:08:50;;;;;;;4.50;1.70;;;;;;;28.93;25.17;97898.56;5047457;28;20469;-71
2022/06/13 10:11:27;;;;;;;8.43;2.10;;;;;;;29.06;25.71;97905.44;5015385;28;21036;-71
2022/06/13 10:14:06;;;;;;;8.20;2.30;;;;;;;29.21;26.41;97900.19;5048910;28;20426;-71
2022/06/13 10:16:43;;;;;;;5.43;1.67;;;;;;;29.30;26.12;97905.09;5053083;28;20418;-69
2022/06/13 10:19:30;;;;;;;5.23;2.10;;;;;;;29.27;25.25;97901.84;5051948;28;20463;-71
2022/06/13 10:22:14;;;;;;;2.90;1.83;;;;;;;29.17;25.37;97901.78;5050142;28;20437;-71
2022/06/13 10:25:09;;;;;;;5.87;2.13;;;;;;;29.49;26.41;97910.97;5049312;28;20418;-72
2022/06/13 10:27:43;;;;;;;8.60;2.80;;;;;;;29.61;25.84;97905.38;5037111;28;20430;-70
2022/06/13 10:30:15;;;;;;;7.03;1.97;;;;;;;29.60;26.72;97914.56;5061437;28;20970;-70
2022/06/13 10:33:11;;;;;;;7.93;2.20;;;;;;;29.73;26.48;97916.81;5052588;28;20421;-70
2022/06/13 10:35:55;;;;;;;7.30;2.10;;;;;;;29.67;26.09;97905.16;5049048;28;20939;-69
2022/06/13 10:38:48;;;;;;;4.30;1.93;;;;;;;29.79;25.67;97902.25;5050945;28;20490;-71
2022/06/13 10:41:14;;;;;;;3.17;1.53;;;;;;;29.98;25.83;97910.75;5050737;28;20468;-70
2022/06/13 10:43:42;;;;;;;13.97;1.90;;;;;;;30.11;26.23;97895.16;5050989;28;20433;-70
2022/06/13 10:46:11;;;;;;;4.07;1.70;;;;;;;30.17;24.72;97897.59;5034953;28;20705;-70
2022/06/13 10:48:46;;;;;;;3.10;1.77;;;;;;;30.25;25.36;97898.16;5052511;28;20827;-69
2022/06/13 10:51:11;;;;;;;5.07;2.20;;;;;;;30.37;25.59;97896.06;5051322;28;20449;-70
2022/06/13 10:53:41;;;;;;;5.10;2.00;;;;;;;30.19;25.52;97887.34;5052264;28;20436;-71
2022/06/13 10:56:12;;;;;;;3.30;1.73;;;;;;;30.04;25.83;97903.50;5050956;28;20191;-70
2022/06/13 10:58:39;;;;;;;3.83;1.73;;;;;;;29.95;25.82;97899.66;5050540;28;20425;-70
2022/06/13 11:01:17;;;;;;;7.10;1.53;;;;;;;30.01;25.57;97904.00;5050876;28;20449;-70
2022/06/13 11:03:59;;;;;;;4.70;1.90;;;;;;;30.24;25.54;97899.28;5059421;28;20768;-69
2022/06/13 11:06:41;;;;;;;5.40;1.77;;;;;;;30.42;25.09;97900.69;5051785;28;20549;-71
2022/06/13 11:09:20;;;;;;;4.93;1.90;;;;;;;30.48;25.06;97900.44;5046834;28;20520;-71
2022/06/13 11:11:46;;;;;;;5.60;2.00;;;;;;;30.56;25.28;97898.31;5050530;28;20456;-69
2022/06/13 11:14:26;;;;;;;10.20;2.27;;;;;;;30.54;25.58;97895.91;5048291;28;20434;-70
2022/06/13 11:22:39;;;;;;;5.73;1.63;;;;;;;30.71;24.70;97901.06;5033290;28;20444;-70
2022/06/13 11:25:29;;;;;;;3.93;2.00;;;;;;;30.74;24.25;97900.53;5066377;28;20435;-70
2022/06/13 11:28:12;;;;;;;9.50;1.50;;;;;;;30.82;23.79;97888.38;5041785;28;20488;-71
2022/06/13 11:30:38;;;;;;;10.30;2.57;;;;;;;30.92;24.16;97901.94;5054942;28;20519;-71
2022/06/13 11:33:09;;;;;;;8.93;1.80;;;;;;;31.00;23.41;97892.44;5051178;28;20421;-71
2022/06/13 11:35:46;;;;;;;24.33;4.07;;;;;;;30.91;24.72;97894.88;5045566;28;20195;-71
2022/06/13 11:38:25;;;;;;;5.23;1.50;;;;;;;30.76;23.93;97898.34;5047436;28;20455;-71
2022/06/13 11:41:19;;;;;;;4.97;1.43;;;;;;;30.77;23.81;97900.00;5042770;28;20511;-71
2022/06/13 11:44:22;;;;;;;3.17;1.57;;;;;;;30.69;22.47;97897.00;5026619;28;20572;-69
2022/06/13 11:46:53;;;;;;;5.23;1.47;;;;;;;30.78;23.40;97895.41;5032477;28;20425;-70
2022/06/13 11:49:39;;;;;;;3.00;1.73;;;;;;;30.82;23.90;97887.56;5048426;28;20505;-72
2022/06/13 11:53:35;;;;;;;7.90;1.50;;;;;;;30.64;24.34;97897.78;5052700;28;20477;-69
2022/06/13 11:55:00;;;;;;;5.17;1.63;;;;;;;30.69;23.85;97897.00;5050295;28;20434;-69
2022/06/13 11:57:37;;;;;;;3.73;2.20;;;;;;;30.67;24.37;97899.16;5049981;28;20431;-71
2022/06/13 12:00:24;;;;;;;6.33;1.60;;;;;;;30.80;23.71;97885.94;5044574;28;20441;-70
2022/06/13 12:02:50;;;;;;;5.53;2.00;;;;;;;30.62;23.50;97886.47;5048254;28;20495;-70
2022/06/13 12:05:31;;;;;;;5.27;2.23;;;;;;;30.81;24.63;97892.19;5043348;28;20838;-70
2022/06/13 12:08:14;;;;;;;3.33;1.60;;;;;;;30.99;23.62;97890.84;5042912;28;20299;-70
2022/06/13 12:10:43;;;;;;;3.83;1.60;;;;;;;31.05;24.00;97892.47;5043420;28;20536;-70
2022/06/13 12:13:13;;;;;;;2.93;1.57;;;;;;;30.73;24.04;97887.28;5042999;28;20429;-71